sensor_id;sensor_type;location;lat;lon;timestamp;pressure;altitude;pressure_sealevel;temperature;humidity
71151;BME280;59071;42.138;24.768;2022-09-02T00:02:11;99300.34;;;25.01;72.02
71151;BME280;59071;42.138;24.768;2022-09-02T00:04:37;99304.47;;;24.39;74.43
71151;BME280;59071;42.138;24.768;2022-09-02T00:07:03;99294.78;;;24.47;74.46
71151;BME280;59071;42.138;24.768;2022-09-02T00:09:28;99295.81;;;24.37;74.62
71151;BME280;59071;42.138;24.768;2022-09-02T00:11:55;99305.34;;;24.48;74.51
71151;BME280;59071;42.138;24.768;2022-09-02T00:14:30;99302.84;;;24.52;73.82
71151;BME280;59071;42.138;24.768;2022-09-02T00:16:56;99288.94;;;24.53;73.47
71151;BME280;59071;42.138;24.768;2022-09-02T00:19:25;99299.22;;;24.43;74.08
71151;BME280;59071;42.138;24.768;2022-09-02T00:21:54;99288.56;;;24.32;74.14
71151;BME280;59071;42.138;24.768;2022-09-02T00:24:21;99297.13;;;24.39;73.74
71151;BME280;59071;42.138;24.768;2022-09-02T00:26:47;99295.59;;;24.47;73.28
71151;BME280;59071;42.138;24.768;2022-09-02T00:29:12;99296.69;;;24.46;73.19
71151;BME280;59071;42.138;24.768;2022-09-02T00:31:41;99301.13;;;24.42;73.05
71151;BME280;59071;42.138;24.768;2022-09-02T00:34:07;99297.91;;;24.40;73.23
71151;BME280;59071;42.138;24.768;2022-09-02T00:36:33;99295.94;;;24.32;73.50
71151;BME280;59071;42.138;24.768;2022-09-02T00:38:58;99293.66;;;24.11;74.30
71151;BME280;59071;42.138;24.768;2022-09-02T00:41:26;99296.91;;;24.36;73.53
71151;BME280;59071;42.138;24.768;2022-09-02T00:43:58;99301.44;;;24.40;73.39
71151;BME280;59071;42.138;24.768;2022-09-02T00:46:26;99295.44;;;24.30;73.68
71151;BME280;59071;42.138;24.768;2022-09-02T00:48:58;99291.97;;;24.38;73.75
71151;BME280;59071;42.138;24.768;2022-09-02T00:51:25;99293.06;;;24.51;73.22
71151;BME280;59071;42.138;24.768;2022-09-02T00:53:52;99291.25;;;24.60;72.85
71151;BME280;59071;42.138;24.768;2022-09-02T00:56:21;99294.78;;;24.61;73.12
71151;BME280;59071;42.138;24.768;2022-09-02T00:58:49;99301.44;;;24.40;74.04
71151;BME280;59071;42.138;24.768;2022-09-02T01:01:16;99294.41;;;24.39;74.21
71151;BME280;59071;42.138;24.768;2022-09-02T01:03:41;99296.84;;;24.27;75.20
71151;BME280;59071;42.138;24.768;2022-09-02T01:06:10;99291.06;;;24.43;74.78
71151;BME280;59071;42.138;24.768;2022-09-02T01:08:42;99288.28;;;24.34;75.09
71151;BME280;59071;42.138;24.768;2022-09-02T01:11:10;99296.81;;;24.41;75.74
71151;BME280;59071;42.138;24.768;2022-09-02T01:13:39;99290.22;;;24.06;78.36
71151;BME280;59071;42.138;24.768;2022-09-02T01:16:16;99292.91;;;24.19;78.49
71151;BME280;59071;42.138;24.768;2022-09-02T01:18:46;99295.53;;;24.25;78.49
71151;BME280;59071;42.138;24.768;2022-09-02T01:21:13;99293.63;;;24.25;79.05
71151;BME280;59071;42.138;24.768;2022-09-02T01:23:39;99262.94;;;23.97;80.20
71151;BME280;59071;42.138;24.768;2022-09-02T01:26:05;99293.41;;;24.22;79.94
71151;BME280;59071;42.138;24.768;2022-09-02T01:28:32;99289.50;;;24.28;79.60
71151;BME280;59071;42.138;24.768;2022-09-02T01:30:59;99294.69;;;24.52;78.70
71151;BME280;59071;42.138;24.768;2022-09-02T01:33:24;99292.28;;;24.36;79.22
71151;BME280;59071;42.138;24.768;2022-09-02T01:35:50;99288.84;;;23.80;81.86
71151;BME280;59071;42.138;24.768;2022-09-02T01:38:17;99281.91;;;23.88;81.61
71151;BME280;59071;42.138;24.768;2022-09-02T01:40:43;99286.91;;;23.95;81.11
71151;BME280;59071;42.138;24.768;2022-09-02T01:43:15;99294.69;;;23.88;81.01
71151;BME280;59071;42.138;24.768;2022-09-02T01:45:43;99286.19;;;23.75;81.85
71151;BME280;59071;42.138;24.768;2022-09-02T01:48:09;99293.84;;;23.87;80.37
71151;BME280;59071;42.138;24.768;2022-09-02T01:50:38;99286.59;;;23.69;80.96
71151;BME280;59071;42.138;24.768;2022-09-02T01:53:04;99284.31;;;23.90;79.94
71151;BME280;59071;42.138;24.768;2022-09-02T01:55:30;99290.72;;;23.66;81.09
71151;BME280;59071;42.138;24.768;2022-09-02T01:57:57;99281.78;;;23.52;81.44
71151;BME280;59071;42.138;24.768;2022-09-02T02:00:23;99282.16;;;23.45;81.90
71151;BME280;59071;42.138;24.768;2022-09-02T02:02:48;99288.06;;;23.33;82.28
71151;BME280;59071;42.138;24.768;2022-09-02T02:05:15;99291.91;;;23.32;82.35
71151;BME280;59071;42.138;24.768;2022-09-02T02:07:44;99289.50;;;23.45;81.69
71151;BME280;59071;42.138;24.768;2022-09-02T02:10:11;99280.75;;;23.48;81.62
71151;BME280;59071;42.138;24.768;2022-09-02T02:12:38;99289.50;;;23.45;81.91
71151;BME280;59071;42.138;24.768;2022-09-02T02:15:08;99286.00;;;23.72;80.58
71151;BME280;59071;42.138;24.768;2022-09-02T02:17:34;99294.97;;;23.72;80.30
71151;BME280;59071;42.138;24.768;2022-09-02T02:20:00;99290.31;;;23.73;80.00
71151;BME280;59071;42.138;24.768;2022-09-02T02:22:26;99300.72;;;23.85;79.60
71151;BME280;59071;42.138;24.768;2022-09-02T02:24:53;99292.13;;;23.50;81.46
71151;BME280;59071;42.138;24.768;2022-09-02T02:27:19;99295.66;;;23.64;80.55
71151;BME280;59071;42.138;24.768;2022-09-02T02:29:45;99279.84;;;23.66;80.34
71151;BME280;59071;42.138;24.768;2022-09-02T02:32:11;99286.28;;;23.56;80.81
71151;BME280;59071;42.138;24.768;2022-09-02T02:34:36;99289.34;;;23.22;82.75
71151;BME280;59071;42.138;24.768;2022-09-02T02:37:02;99287.84;;;23.16;82.95
71151;BME280;59071;42.138;24.768;2022-09-02T02:39:28;99281.47;;;23.07;83.69
71151;BME280;59071;42.138;24.768;2022-09-02T02:41:53;99265.22;;;23.20;82.70
71151;BME280;59071;42.138;24.768;2022-09-02T02:44:18;99275.22;;;23.53;81.36
71151;BME280;59071;42.138;24.768;2022-09-02T02:46:44;99306.50;;;23.64;80.44
71151;BME280;59071;42.138;24.768;2022-09-02T02:49:09;99274.22;;;23.62;80.61
71151;BME280;59071;42.138;24.768;2022-09-02T02:51:35;99271.81;;;23.61;80.32
71151;BME280;59071;42.138;24.768;2022-09-02T02:54:01;99275.22;;;23.39;81.61
71151;BME280;59071;42.138;24.768;2022-09-02T02:56:28;99276.13;;;23.48;81.42
71151;BME280;59071;42.138;24.768;2022-09-02T02:58:55;99286.06;;;23.25;81.94
71151;BME280;59071;42.138;24.768;2022-09-02T03:01:22;99283.34;;;23.25;82.47
71151;BME280;59071;42.138;24.768;2022-09-02T03:03:47;99271.19;;;23.36;82.09
71151;BME280;59071;42.138;24.768;2022-09-02T03:06:13;99272.69;;;23.29;82.47
71151;BME280;59071;42.138;24.768;2022-09-02T03:08:38;99271.91;;;23.42;81.54
71151;BME280;59071;42.138;24.768;2022-09-02T03:11:04;99275.78;;;23.22;82.29
71151;BME280;59071;42.138;24.768;2022-09-02T03:13:32;99280.16;;;23.51;81.15
71151;BME280;59071;42.138;24.768;2022-09-02T03:15:58;99281.34;;;23.45;81.02
71151;BME280;59071;42.138;24.768;2022-09-02T03:18:23;99306.63;;;23.12;82.80
71151;BME280;59071;42.138;24.768;2022-09-02T03:20:49;99281.41;;;23.12;83.11
71151;BME280;59071;42.138;24.768;2022-09-02T03:23:15;99281.25;;;23.03;83.34
71151;BME280;59071;42.138;24.768;2022-09-02T03:25:43;99280.44;;;23.02;83.45
71151;BME280;59071;42.138;24.768;2022-09-02T03:28:10;99283.31;;;22.92;84.24
71151;BME280;59071;42.138;24.768;2022-09-02T03:30:37;99289.03;;;23.10;83.55
71151;BME280;59071;42.138;24.768;2022-09-02T03:33:03;99284.84;;;23.17;82.52
71151;BME280;59071;42.138;24.768;2022-09-02T03:35:30;99287.22;;;22.86;84.37
71151;BME280;59071;42.138;24.768;2022-09-02T03:37:56;99291.63;;;22.82;84.92
71151;BME280;59071;42.138;24.768;2022-09-02T03:40:25;99275.38;;;22.96;84.07
71151;BME280;59071;42.138;24.768;2022-09-02T03:42:51;99283.13;;;22.89;84.68
71151;BME280;59071;42.138;24.768;2022-09-02T03:45:17;99290.84;;;22.95;84.01
71151;BME280;59071;42.138;24.768;2022-09-02T03:47:44;99289.84;;;22.91;84.36
71151;BME280;59071;42.138;24.768;2022-09-02T03:50:19;99282.06;;;23.03;83.52
71151;BME280;59071;42.138;24.768;2022-09-02T03:52:45;99285.50;;;23.09;83.06
71151;BME280;59071;42.138;24.768;2022-09-02T03:55:10;99291.50;;;23.39;81.77
71151;BME280;59071;42.138;24.768;2022-09-02T03:57:36;99294.81;;;23.36;81.15
71151;BME280;59071;42.138;24.768;2022-09-02T04:00:04;99297.84;;;23.34;81.54
71151;BME280;59071;42.138;24.768;2022-09-02T04:02:32;99291.06;;;23.18;69.58
71151;BME280;59071;42.138;24.768;2022-09-02T04:04:57;99298.22;;;23.41;80.51
71151;BME280;59071;42.138;24.768;2022-09-02T04:07:23;99301.84;;;23.23;81.70
71151;BME280;59071;42.138;24.768;2022-09-02T04:09:48;99300.28;;;23.17;82.25
71151;BME280;59071;42.138;24.768;2022-09-02T04:12:14;99299.38;;;23.08;82.62
71151;BME280;59071;42.138;24.768;2022-09-02T04:14:39;99311.34;;;23.20;81.95
71151;BME280;59071;42.138;24.768;2022-09-02T04:17:06;99308.69;;;23.34;81.07
71151;BME280;59071;42.138;24.768;2022-09-02T04:19:31;99303.28;;;23.48;80.41
71151;BME280;59071;42.138;24.768;2022-09-02T04:21:57;99315.34;;;23.09;82.12
71151;BME280;59071;42.138;24.768;2022-09-02T04:24:22;99300.63;;;23.15;81.89
71151;BME280;59071;42.138;24.768;2022-09-02T04:26:49;99307.09;;;23.47;80.03
71151;BME280;59071;42.138;24.768;2022-09-02T04:29:14;99302.56;;;23.42;80.34
71151;BME280;59071;42.138;24.768;2022-09-02T04:31:40;99313.00;;;23.35;80.97
71151;BME280;59071;42.138;24.768;2022-09-02T04:34:05;99315.63;;;23.40;80.58
71151;BME280;59071;42.138;24.768;2022-09-02T04:36:31;99314.94;;;23.62;79.45
71151;BME280;59071;42.138;24.768;2022-09-02T04:38:57;99318.72;;;23.34;80.92
71151;BME280;59071;42.138;24.768;2022-09-02T04:41:26;99327.28;;;23.41;80.62
71151;BME280;59071;42.138;24.768;2022-09-02T04:43:54;99330.66;;;23.52;79.47
71151;BME280;59071;42.138;24.768;2022-09-02T04:46:20;99317.56;;;23.54;79.74
71151;BME280;59071;42.138;24.768;2022-09-02T04:48:46;99329.66;;;23.61;79.44
71151;BME280;59071;42.138;24.768;2022-09-02T04:51:14;99317.75;;;23.43;79.79
71151;BME280;59071;42.138;24.768;2022-09-02T04:53:41;99326.31;;;23.51;79.68
71151;BME280;59071;42.138;24.768;2022-09-02T04:56:10;99325.28;;;23.47;79.76
71151;BME280;59071;42.138;24.768;2022-09-02T04:58:35;99331.28;;;23.76;78.39
71151;BME280;59071;42.138;24.768;2022-09-02T05:01:12;99328.34;;;23.73;78.50
71151;BME280;59071;42.138;24.768;2022-09-02T05:03:40;99335.78;;;23.67;78.50
71151;BME280;59071;42.138;24.768;2022-09-02T05:06:08;99330.94;;;23.50;79.47
71151;BME280;59071;42.138;24.768;2022-09-02T05:08:34;99328.22;;;23.64;78.74
71151;BME280;59071;42.138;24.768;2022-09-02T05:11:07;99329.19;;;24.15;76.09
71151;BME280;59071;42.138;24.768;2022-09-02T05:13:33;99336.16;;;23.93;76.85
71151;BME280;59071;42.138;24.768;2022-09-02T05:15:59;99314.41;;;23.33;78.78
71151;BME280;59071;42.138;24.768;2022-09-02T05:18:25;99339.00;;;23.55;78.71
71151;BME280;59071;42.138;24.768;2022-09-02T05:20:51;99328.22;;;23.50;78.86
71151;BME280;59071;42.138;24.768;2022-09-02T05:23:16;99329.44;;;23.58;78.88
71151;BME280;59071;42.138;24.768;2022-09-02T05:25:42;99326.56;;;23.35;79.88
71151;BME280;59071;42.138;24.768;2022-09-02T05:28:10;99328.16;;;23.69;78.43
71151;BME280;59071;42.138;24.768;2022-09-02T05:30:37;99322.72;;;23.69;78.37
71151;BME280;59071;42.138;24.768;2022-09-02T05:33:04;99322.22;;;23.95;77.36
71151;BME280;59071;42.138;24.768;2022-09-02T05:35:30;99321.44;;;23.80;77.92
71151;BME280;59071;42.138;24.768;2022-09-02T05:37:56;99339.81;;;23.70;78.20
71151;BME280;59071;42.138;24.768;2022-09-02T05:40:21;99323.50;;;23.56;78.85
71151;BME280;59071;42.138;24.768;2022-09-02T05:42:47;99329.88;;;23.93;77.22
71151;BME280;59071;42.138;24.768;2022-09-02T05:45:12;99324.84;;;24.00;77.25
71151;BME280;59071;42.138;24.768;2022-09-02T05:47:38;99318.00;;;23.75;78.40
71151;BME280;59071;42.138;24.768;2022-09-02T05:50:04;99320.09;;;23.64;79.12
71151;BME280;59071;42.138;24.768;2022-09-02T05:52:30;99315.78;;;23.77;78.63
71151;BME280;59071;42.138;24.768;2022-09-02T05:54:56;99343.47;;;23.93;77.91
71151;BME280;59071;42.138;24.768;2022-09-02T05:57:22;99328.47;;;24.09;76.66
71151;BME280;59071;42.138;24.768;2022-09-02T05:59:48;99329.59;;;24.22;76.57
71151;BME280;59071;42.138;24.768;2022-09-02T06:02:20;99336.66;;;24.59;75.07
71151;BME280;59071;42.138;24.768;2022-09-02T06:04:48;99329.59;;;24.72;74.28
71151;BME280;59071;42.138;24.768;2022-09-02T06:07:15;99322.03;;;24.92;72.84
71151;BME280;59071;42.138;24.768;2022-09-02T06:09:41;99325.34;;;25.03;72.18
71151;BME280;59071;42.138;24.768;2022-09-02T06:12:09;99324.56;;;24.88;72.80
71151;BME280;59071;42.138;24.768;2022-09-02T06:14:35;99319.31;;;24.69;73.42
71151;BME280;59071;42.138;24.768;2022-09-02T06:17:03;99328.72;;;24.86;73.13
71151;BME280;59071;42.138;24.768;2022-09-02T06:19:29;99330.38;;;24.73;73.72
71151;BME280;59071;42.138;24.768;2022-09-02T06:21:57;99343.13;;;24.86;72.66
71151;BME280;59071;42.138;24.768;2022-09-02T06:24:23;99326.81;;;25.09;72.08
71151;BME280;59071;42.138;24.768;2022-09-02T06:26:49;99328.66;;;25.22;72.01
71151;BME280;59071;42.138;24.768;2022-09-02T06:29:15;99328.53;;;25.50;69.90
71151;BME280;59071;42.138;24.768;2022-09-02T06:31:41;99333.69;;;25.29;71.01
71151;BME280;59071;42.138;24.768;2022-09-02T06:34:08;99331.66;;;25.34;70.35
71151;BME280;59071;42.138;24.768;2022-09-02T06:36:37;99338.84;;;25.30;70.80
71151;BME280;59071;42.138;24.768;2022-09-02T06:39:03;99327.44;;;25.06;71.67
71151;BME280;59071;42.138;24.768;2022-09-02T06:41:30;99344.81;;;25.41;70.76
71151;BME280;59071;42.138;24.768;2022-09-02T06:44:01;99339.47;;;25.27;71.05
71151;BME280;59071;42.138;24.768;2022-09-02T06:46:31;99345.63;;;25.19;71.11
71151;BME280;59071;42.138;24.768;2022-09-02T06:48:57;99338.63;;;25.04;72.09
71151;BME280;59071;42.138;24.768;2022-09-02T06:51:46;99345.94;;;25.17;71.21
71151;BME280;59071;42.138;24.768;2022-09-02T06:54:13;99344.38;;;24.80;73.08
71151;BME280;59071;42.138;24.768;2022-09-02T06:56:39;99335.03;;;24.95;72.09
71151;BME280;59071;42.138;24.768;2022-09-02T06:59:06;99347.91;;;25.48;70.14
71151;BME280;59071;42.138;24.768;2022-09-02T07:01:32;99337.94;;;25.21;70.78
71151;BME280;59071;42.138;24.768;2022-09-02T07:03:58;99360.53;;;25.22;70.42
71151;BME280;59071;42.138;24.768;2022-09-02T07:06:46;99362.03;;;24.69;72.85
71151;BME280;59071;42.138;24.768;2022-09-02T07:09:14;99346.41;;;24.97;72.04
71151;BME280;59071;42.138;24.768;2022-09-02T07:11:40;99351.22;;;25.36;70.78
71151;BME280;59071;42.138;24.768;2022-09-02T07:14:06;99352.97;;;25.41;69.95
71151;BME280;59071;42.138;24.768;2022-09-02T07:16:36;99356.13;;;25.57;69.72
71151;BME280;59071;42.138;24.768;2022-09-02T07:19:06;99341.75;;;25.74;69.30
71151;BME280;59071;42.138;24.768;2022-09-02T07:21:31;99352.31;;;25.98;68.77
71151;BME280;59071;42.138;24.768;2022-09-02T07:23:58;99350.00;;;26.31;67.04
71151;BME280;59071;42.138;24.768;2022-09-02T07:26:24;99352.56;;;26.28;67.13
71151;BME280;59071;42.138;24.768;2022-09-02T07:28:50;99354.69;;;26.48;66.30
71151;BME280;59071;42.138;24.768;2022-09-02T07:31:16;99363.53;;;26.54;66.00
71151;BME280;59071;42.138;24.768;2022-09-02T07:33:42;99365.00;;;26.60;65.59
71151;BME280;59071;42.138;24.768;2022-09-02T07:36:09;99367.84;;;26.55;65.10
71151;BME280;59071;42.138;24.768;2022-09-02T07:38:35;99366.75;;;26.65;65.33
71151;BME280;59071;42.138;24.768;2022-09-02T07:41:01;99347.09;;;26.19;66.00
71151;BME280;59071;42.138;24.768;2022-09-02T07:43:28;99364.00;;;26.47;65.43
71151;BME280;59071;42.138;24.768;2022-09-02T07:45:54;99365.75;;;26.43;65.55
71151;BME280;59071;42.138;24.768;2022-09-02T07:48:21;99369.03;;;26.71;65.07
71151;BME280;59071;42.138;24.768;2022-09-02T07:50:47;99355.22;;;26.77;64.47
71151;BME280;59071;42.138;24.768;2022-09-02T07:53:13;99360.97;;;27.01;63.65
71151;BME280;59071;42.138;24.768;2022-09-02T07:55:41;99364.19;;;27.21;63.07
71151;BME280;59071;42.138;24.768;2022-09-02T07:58:07;99368.22;;;26.62;64.55
71151;BME280;59071;42.138;24.768;2022-09-02T08:00:32;99370.78;;;26.67;64.53
71151;BME280;59071;42.138;24.768;2022-09-02T08:02:59;99364.22;;;26.95;63.79
71151;BME280;59071;42.138;24.768;2022-09-02T08:05:26;99379.94;;;26.98;63.59
71151;BME280;59071;42.138;24.768;2022-09-02T08:07:52;99378.81;;;26.99;63.77
71151;BME280;59071;42.138;24.768;2022-09-02T08:10:17;99367.09;;;27.16;62.57
71151;BME280;59071;42.138;24.768;2022-09-02T08:12:45;99366.56;;;27.22;62.44
71151;BME280;59071;42.138;24.768;2022-09-02T08:15:12;99368.56;;;26.69;64.02
71151;BME280;59071;42.138;24.768;2022-09-02T08:17:38;99358.72;;;27.12;62.67
71151;BME280;59071;42.138;24.768;2022-09-02T08:20:07;99357.63;;;27.30;61.64
71151;BME280;59071;42.138;24.768;2022-09-02T08:22:33;99356.78;;;27.21;62.07
71151;BME280;59071;42.138;24.768;2022-09-02T08:24:59;99354.78;;;27.65;61.10
71151;BME280;59071;42.138;24.768;2022-09-02T08:27:25;99351.13;;;28.00;59.44
71151;BME280;59071;42.138;24.768;2022-09-02T08:29:52;99346.31;;;27.97;59.62
71151;BME280;59071;42.138;24.768;2022-09-02T08:32:17;99342.31;;;27.94;59.44
71151;BME280;59071;42.138;24.768;2022-09-02T08:34:43;99346.41;;;28.39;58.41
71151;BME280;59071;42.138;24.768;2022-09-02T08:37:08;99344.59;;;28.43;57.87
71151;BME280;59071;42.138;24.768;2022-09-02T08:39:34;99334.97;;;28.37;58.02
71151;BME280;59071;42.138;24.768;2022-09-02T08:44:37;99323.16;;;27.56;60.12
71151;BME280;59071;42.138;24.768;2022-09-02T08:47:08;99328.72;;;27.68;59.76
71151;BME280;59071;42.138;24.768;2022-09-02T08:49:59;99323.03;;;27.91;58.91
71151;BME280;59071;42.138;24.768;2022-09-02T08:53:18;99325.97;;;27.68;59.78
71151;BME280;59071;42.138;24.768;2022-09-02T08:55:28;99335.25;;;27.37;59.80
71151;BME280;59071;42.138;24.768;2022-09-02T08:57:57;99327.53;;;27.48;59.92
71151;BME280;59071;42.138;24.768;2022-09-02T09:00:26;99323.22;;;27.12;61.63
71151;BME280;59071;42.138;24.768;2022-09-02T09:03:01;99336.41;;;27.10;62.13
71151;BME280;59071;42.138;24.768;2022-09-02T09:05:50;99330.97;;;26.92;62.69
71151;BME280;59071;42.138;24.768;2022-09-02T09:11:15;99333.19;;;27.08;62.50
71151;BME280;59071;42.138;24.768;2022-09-02T09:14:05;99327.09;;;27.02;63.21
71151;BME280;59071;42.138;24.768;2022-09-02T09:16:40;99332.09;;;27.26;65.55
71151;BME280;59071;42.138;24.768;2022-09-02T09:22:06;99332.88;;;26.92;67.57
71151;BME280;59071;42.138;24.768;2022-09-02T09:24:44;99353.63;;;27.02;68.23
71151;BME280;59071;42.138;24.768;2022-09-02T09:27:16;99360.47;;;26.56;69.70
71151;BME280;59071;42.138;24.768;2022-09-02T09:29:41;99366.28;;;26.05;72.31
71151;BME280;59071;42.138;24.768;2022-09-02T09:32:22;99355.06;;;25.75;74.43
71151;BME280;59071;42.138;24.768;2022-09-02T09:39:58;99334.38;;;25.66;76.15
71151;BME280;59071;42.138;24.768;2022-09-02T09:42:35;99341.00;;;25.51;77.20
71151;BME280;59071;42.138;24.768;2022-09-02T09:45:32;99336.53;;;25.46;76.90
71151;BME280;59071;42.138;24.768;2022-09-02T09:51:16;99332.97;;;26.08;71.29
71151;BME280;59071;42.138;24.768;2022-09-02T09:53:42;99336.13;;;26.02;71.02
71151;BME280;59071;42.138;24.768;2022-09-02T10:01:30;99339.78;;;26.63;63.58
71151;BME280;59071;42.138;24.768;2022-09-02T10:04:04;99335.47;;;26.62;64.04
71151;BME280;59071;42.138;24.768;2022-09-02T10:09:02;99316.53;;;26.66;63.72
71151;BME280;59071;42.138;24.768;2022-09-02T10:11:30;99321.19;;;26.74;63.85
71151;BME280;59071;42.138;24.768;2022-09-02T10:14:00;99334.19;;;26.77;64.02
71151;BME280;59071;42.138;24.768;2022-09-02T10:19:10;99352.97;;;26.79;64.47
71151;BME280;59071;42.138;24.768;2022-09-02T10:26:59;99371.53;;;25.62;68.96
71151;BME280;59071;42.138;24.768;2022-09-02T10:32:21;99358.78;;;26.11;67.37
71151;BME280;59071;42.138;24.768;2022-09-02T10:34:53;99363.81;;;26.35;66.98
71151;BME280;59071;42.138;24.768;2022-09-02T10:37:27;99364.63;;;26.44;67.05
71151;BME280;59071;42.138;24.768;2022-09-02T10:45:43;99354.88;;;26.61;64.81
71151;BME280;59071;42.138;24.768;2022-09-02T10:51:09;99370.78;;;26.67;64.90
71151;BME280;59071;42.138;24.768;2022-09-02T10:56:21;99367.16;;;26.32;66.96
71151;BME280;59071;42.138;24.768;2022-09-02T10:59:17;99357.84;;;26.33;65.74
71151;BME280;59071;42.138;24.768;2022-09-02T11:04:56;99348.78;;;26.72;66.82
71151;BME280;59071;42.138;24.768;2022-09-02T11:07:30;99353.47;;;26.81;67.42
71151;BME280;59071;42.138;24.768;2022-09-02T11:10:08;99365.50;;;26.88;66.64
71151;BME280;59071;42.138;24.768;2022-09-02T11:12:47;99371.19;;;26.52;66.09
71151;BME280;59071;42.138;24.768;2022-09-02T11:20:55;99380.72;;;25.97;66.42
71151;BME280;59071;42.138;24.768;2022-09-02T11:26:23;99390.13;;;26.40;66.15
71151;BME280;59071;42.138;24.768;2022-09-02T11:28:58;99382.41;;;26.33;66.45
71151;BME280;59071;42.138;24.768;2022-09-02T11:31:34;99368.31;;;26.40;65.52
71151;BME280;59071;42.138;24.768;2022-09-02T11:37:03;99356.31;;;26.58;67.39
71151;BME280;59071;42.138;24.768;2022-09-02T11:39:52;99362.75;;;26.71;67.52
71151;BME280;59071;42.138;24.768;2022-09-02T11:53:40;99361.44;;;26.60;67.58
71151;BME280;59071;42.138;24.768;2022-09-02T11:56:17;99365.00;;;26.60;68.08
71151;BME280;59071;42.138;24.768;2022-09-02T11:58:49;99360.66;;;26.77;67.64
71151;BME280;59071;42.138;24.768;2022-09-02T12:01:38;99364.03;;;26.82;67.68
71151;BME280;59071;42.138;24.768;2022-09-02T12:04:24;99369.34;;;26.87;67.19
71151;BME280;59071;42.138;24.768;2022-09-02T12:10:00;99381.38;;;26.95;66.85
71151;BME280;59071;42.138;24.768;2022-09-02T12:17:40;99367.88;;;26.72;67.03
71151;BME280;59071;42.138;24.768;2022-09-02T12:23:08;99343.91;;;26.26;70.60
71151;BME280;59071;42.138;24.768;2022-09-02T12:25:36;99350.00;;;26.40;70.18
71151;BME280;59071;42.138;24.768;2022-09-02T12:28:23;99346.66;;;26.52;68.61
71151;BME280;59071;42.138;24.768;2022-09-02T12:33:31;99341.88;;;25.91;69.36
71151;BME280;59071;42.138;24.768;2022-09-02T12:35:58;99350.66;;;25.88;69.58
71151;BME280;59071;42.138;24.768;2022-09-02T12:38:29;99353.84;;;25.82;70.13
71151;BME280;59071;42.138;24.768;2022-09-02T12:54:26;99361.06;;;24.87;75.26
71151;BME280;59071;42.138;24.768;2022-09-02T12:56:55;99356.91;;;25.04;76.41
71151;BME280;59071;42.138;24.768;2022-09-02T12:59:32;99352.97;;;25.41;74.56
71151;BME280;59071;42.138;24.768;2022-09-02T13:07:40;99325.25;;;25.70;71.24
71151;BME280;59071;42.138;24.768;2022-09-02T13:34:43;99286.75;;;25.63;72.99
71151;BME280;59071;42.138;24.768;2022-09-02T13:37:30;99290.31;;;26.21;69.39
71151;BME280;59071;42.138;24.768;2022-09-02T13:39:57;99284.34;;;25.62;71.93
71151;BME280;59071;42.138;24.768;2022-09-02T13:42:28;99298.59;;;25.05;73.87
71151;BME280;59071;42.138;24.768;2022-09-02T13:45:14;99303.94;;;24.87;74.54
71151;BME280;59071;42.138;24.768;2022-09-02T13:47:42;99307.91;;;24.81;74.63
71151;BME280;59071;42.138;24.768;2022-09-02T13:50:09;99305.38;;;24.85;76.42
71151;BME280;59071;42.138;24.768;2022-09-02T13:52:36;99303.94;;;25.10;76.11
71151;BME280;59071;42.138;24.768;2022-09-02T13:55:03;99310.06;;;25.15;76.68
71151;BME280;59071;42.138;24.768;2022-09-02T13:57:30;99314.16;;;25.27;75.88
71151;BME280;59071;42.138;24.768;2022-09-02T13:59:56;99319.41;;;25.23;76.16
71151;BME280;59071;42.138;24.768;2022-09-02T14:02:23;99313.56;;;25.16;75.75
71151;BME280;59071;42.138;24.768;2022-09-02T14:04:56;99298.78;;;25.08;75.18
71151;BME280;59071;42.138;24.768;2022-09-02T14:07:49;99297.63;;;25.23;75.01
71151;BME280;59071;42.138;24.768;2022-09-02T14:10:18;99292.47;;;25.22;75.06
71151;BME280;59071;42.138;24.768;2022-09-02T14:12:45;99289.66;;;25.27;75.10
71151;BME280;59071;42.138;24.768;2022-09-02T14:15:14;99287.81;;;25.22;75.69
71151;BME280;59071;42.138;24.768;2022-09-02T14:17:40;99283.81;;;24.97;76.45
71151;BME280;59071;42.138;24.768;2022-09-02T14:20:21;99290.13;;;25.06;76.03
71151;BME280;59071;42.138;24.768;2022-09-02T14:22:57;99295.13;;;25.13;75.74
71151;BME280;59071;42.138;24.768;2022-09-02T14:25:25;99297.31;;;25.02;77.34
71151;BME280;59071;42.138;24.768;2022-09-02T14:27:56;99302.28;;;25.00;77.46
71151;BME280;59071;42.138;24.768;2022-09-02T14:30:33;99306.19;;;25.16;76.81
71151;BME280;59071;42.138;24.768;2022-09-02T14:38:26;99310.25;;;25.19;75.45
71151;BME280;59071;42.138;24.768;2022-09-02T14:41:21;99310.84;;;25.16;75.98
71151;BME280;59071;42.138;24.768;2022-09-02T14:43:47;99296.69;;;25.05;76.61
71151;BME280;59071;42.138;24.768;2022-09-02T14:46:21;99297.41;;;25.20;76.40
71151;BME280;59071;42.138;24.768;2022-09-02T14:48:53;99290.94;;;25.29;76.75
71151;BME280;59071;42.138;24.768;2022-09-02T14:51:19;99291.13;;;25.42;76.61
71151;BME280;59071;42.138;24.768;2022-09-02T14:53:44;99293.44;;;25.48;75.49
71151;BME280;59071;42.138;24.768;2022-09-02T14:56:09;99301.41;;;25.45;74.76
71151;BME280;59071;42.138;24.768;2022-09-02T14:58:35;99303.59;;;25.65;75.15
71151;BME280;59071;42.138;24.768;2022-09-02T15:01:00;99311.97;;;25.78;72.76
71151;BME280;59071;42.138;24.768;2022-09-02T15:03:30;99312.44;;;25.80;72.90
71151;BME280;59071;42.138;24.768;2022-09-02T15:05:55;99324.31;;;25.75;73.21
71151;BME280;59071;42.138;24.768;2022-09-02T15:08:21;99330.66;;;25.62;73.33
71151;BME280;59071;42.138;24.768;2022-09-02T15:10:47;99328.03;;;25.48;73.38
71151;BME280;59071;42.138;24.768;2022-09-02T15:13:26;99339.44;;;25.50;75.03
71151;BME280;59071;42.138;24.768;2022-09-02T15:15:52;99336.53;;;25.55;75.23